sensor_id;sensor_type;location;lat;lon;timestamp;temperature;humidity
78438;SHT31;67736;51.978;5.656;2024-02-21T00:02:17;12.3;68.0
78438;SHT31;67736;51.978;5.656;2024-02-21T00:04:47;12.3;68.0
78438;SHT31;67736;51.978;5.656;2024-02-21T00:07:16;12.3;68.1
78438;SHT31;67736;51.978;5.656;2024-02-21T00:09:46;12.4;68.0
78438;SHT31;67736;51.978;5.656;2024-02-21T00:12:16;12.4;68.0
78438;SHT31;67736;51.978;5.656;2024-02-21T00:14:45;12.4;67.8
78438;SHT31;67736;51.978;5.656;2024-02-21T00:17:15;12.4;67.9
78438;SHT31;67736;51.978;5.656;2024-02-21T00:19:45;12.4;67.6
78438;SHT31;67736;51.978;5.656;2024-02-21T00:22:14;12.4;67.8
78438;SHT31;67736;51.978;5.656;2024-02-21T00:24:44;12.4;67.8
78438;SHT31;67736;51.978;5.656;2024-02-21T00:27:13;12.4;67.9
78438;SHT31;67736;51.978;5.656;2024-02-21T00:29:43;12.3;68.0
78438;SHT31;67736;51.978;5.656;2024-02-21T00:32:12;12.3;68.0
78438;SHT31;67736;51.978;5.656;2024-02-21T00:34:42;12.3;68.0
78438;SHT31;67736;51.978;5.656;2024-02-21T00:37:11;12.3;68.2
78438;SHT31;67736;51.978;5.656;2024-02-21T00:39:41;12.3;68.2
78438;SHT31;67736;51.978;5.656;2024-02-21T00:42:11;12.3;68.1
78438;SHT31;67736;51.978;5.656;2024-02-21T00:44:41;12.3;68.2
78438;SHT31;67736;51.978;5.656;2024-02-21T00:47:11;12.3;68.2
78438;SHT31;67736;51.978;5.656;2024-02-21T00:49:40;12.3;68.3
78438;SHT31;67736;51.978;5.656;2024-02-21T00:52:12;12.3;68.2
78438;SHT31;67736;51.978;5.656;2024-02-21T00:54:41;12.3;68.2
78438;SHT31;67736;51.978;5.656;2024-02-21T00:57:11;12.3;68.0
78438;SHT31;67736;51.978;5.656;2024-02-21T00:59:40;12.3;68.1
78438;SHT31;67736;51.978;5.656;2024-02-21T01:02:10;12.3;68.0
78438;SHT31;67736;51.978;5.656;2024-02-21T01:04:41;12.3;68.1
78438;SHT31;67736;51.978;5.656;2024-02-21T01:07:11;12.3;68.0
78438;SHT31;67736;51.978;5.656;2024-02-21T01:09:42;12.3;68.1
78438;SHT31;67736;51.978;5.656;2024-02-21T01:12:12;12.3;68.0
78438;SHT31;67736;51.978;5.656;2024-02-21T01:14:41;12.3;67.9
78438;SHT31;67736;51.978;5.656;2024-02-21T01:17:12;12.3;67.7
78438;SHT31;67736;51.978;5.656;2024-02-21T01:19:42;12.3;67.8
78438;SHT31;67736;51.978;5.656;2024-02-21T01:22:12;12.3;67.9
78438;SHT31;67736;51.978;5.656;2024-02-21T01:24:45;12.3;67.9
78438;SHT31;67736;51.978;5.656;2024-02-21T01:27:14;12.3;67.8
78438;SHT31;67736;51.978;5.656;2024-02-21T01:29:45;12.3;67.6
78438;SHT31;67736;51.978;5.656;2024-02-21T01:32:16;12.3;67.7
78438;SHT31;67736;51.978;5.656;2024-02-21T01:34:46;12.3;68.1
78438;SHT31;67736;51.978;5.656;2024-02-21T01:37:16;12.3;68.0
78438;SHT31;67736;51.978;5.656;2024-02-21T01:39:47;12.3;68.1
78438;SHT31;67736;51.978;5.656;2024-02-21T01:42:17;12.2;67.9
78438;SHT31;67736;51.978;5.656;2024-02-21T01:44:47;12.2;67.9
78438;SHT31;67736;51.978;5.656;2024-02-21T01:47:17;12.2;67.9
78438;SHT31;67736;51.978;5.656;2024-02-21T01:49:49;12.2;67.9
78438;SHT31;67736;51.978;5.656;2024-02-21T01:52:19;12.2;68.1
78438;SHT31;67736;51.978;5.656;2024-02-21T01:54:49;12.2;68.0
78438;SHT31;67736;51.978;5.656;2024-02-21T01:57:20;12.2;68.0
78438;SHT31;67736;51.978;5.656;2024-02-21T01:59:49;12.2;67.8
78438;SHT31;67736;51.978;5.656;2024-02-21T02:02:19;12.2;67.7
78438;SHT31;67736;51.978;5.656;2024-02-21T02:04:49;12.2;67.8
78438;SHT31;67736;51.978;5.656;2024-02-21T02:07:19;12.2;67.8
78438;SHT31;67736;51.978;5.656;2024-02-21T02:09:48;12.2;67.8
78438;SHT31;67736;51.978;5.656;2024-02-21T02:12:18;12.2;67.7
78438;SHT31;67736;51.978;5.656;2024-02-21T02:14:59;12.2;67.9
78438;SHT31;67736;51.978;5.656;2024-02-21T02:17:32;12.2;68.1
78438;SHT31;67736;51.978;5.656;2024-02-21T02:20:01;12.2;68.1
78438;SHT31;67736;51.978;5.656;2024-02-21T02:22:34;12.2;67.9
78438;SHT31;67736;51.978;5.656;2024-02-21T02:25:06;12.2;67.9
78438;SHT31;67736;51.978;5.656;2024-02-21T02:27:44;12.2;67.9
78438;SHT31;67736;51.978;5.656;2024-02-21T02:30:14;12.2;67.9
78438;SHT31;67736;51.978;5.656;2024-02-21T02:32:46;12.2;67.7
78438;SHT31;67736;51.978;5.656;2024-02-21T02:35:16;12.2;67.6
78438;SHT31;67736;51.978;5.656;2024-02-21T02:37:51;12.2;67.7
78438;SHT31;67736;51.978;5.656;2024-02-21T02:40:21;12.2;67.5
78438;SHT31;67736;51.978;5.656;2024-02-21T02:42:50;12.2;67.7
78438;SHT31;67736;51.978;5.656;2024-02-21T02:45:23;12.2;67.9
78438;SHT31;67736;51.978;5.656;2024-02-21T02:47:54;12.2;67.8
78438;SHT31;67736;51.978;5.656;2024-02-21T02:50:26;12.2;67.8
78438;SHT31;67736;51.978;5.656;2024-02-21T02:52:57;12.2;67.9
78438;SHT31;67736;51.978;5.656;2024-02-21T02:55:28;12.2;67.8
78438;SHT31;67736;51.978;5.656;2024-02-21T02:57:58;12.2;67.8
78438;SHT31;67736;51.978;5.656;2024-02-21T03:00:28;12.2;67.8
78438;SHT31;67736;51.978;5.656;2024-02-21T03:02:57;12.1;67.7
78438;SHT31;67736;51.978;5.656;2024-02-21T03:05:27;12.1;67.7
78438;SHT31;67736;51.978;5.656;2024-02-21T03:07:56;12.1;67.9
78438;SHT31;67736;51.978;5.656;2024-02-21T03:10:28;12.1;68.0
78438;SHT31;67736;51.978;5.656;2024-02-21T03:12:58;12.1;67.8
78438;SHT31;67736;51.978;5.656;2024-02-21T03:15:29;12.1;67.9
78438;SHT31;67736;51.978;5.656;2024-02-21T03:17:59;12.1;68.0
78438;SHT31;67736;51.978;5.656;2024-02-21T03:20:28;12.1;68.1
78438;SHT31;67736;51.978;5.656;2024-02-21T03:22:58;12.2;68.1
78438;SHT31;67736;51.978;5.656;2024-02-21T03:25:27;12.2;68.0
78438;SHT31;67736;51.978;5.656;2024-02-21T03:27:57;12.2;68.1
78438;SHT31;67736;51.978;5.656;2024-02-21T03:30:27;12.2;68.3
78438;SHT31;67736;51.978;5.656;2024-02-21T03:32:56;12.2;68.2
78438;SHT31;67736;51.978;5.656;2024-02-21T03:35:26;12.2;68.2
78438;SHT31;67736;51.978;5.656;2024-02-21T03:37:55;12.2;68.0
78438;SHT31;67736;51.978;5.656;2024-02-21T03:40:25;12.2;68.0
78438;SHT31;67736;51.978;5.656;2024-02-21T03:42:54;12.2;67.9
78438;SHT31;67736;51.978;5.656;2024-02-21T03:45:23;12.2;68.2
78438;SHT31;67736;51.978;5.656;2024-02-21T03:47:53;12.2;68.3
78438;SHT31;67736;51.978;5.656;2024-02-21T03:50:25;12.2;68.2
78438;SHT31;67736;51.978;5.656;2024-02-21T03:52:55;12.2;68.1
78438;SHT31;67736;51.978;5.656;2024-02-21T03:55:24;12.2;67.9
78438;SHT31;67736;51.978;5.656;2024-02-21T03:57:54;12.2;67.9
78438;SHT31;67736;51.978;5.656;2024-02-21T04:00:23;12.2;68.1
78438;SHT31;67736;51.978;5.656;2024-02-21T04:02:53;12.2;68.1
78438;SHT31;67736;51.978;5.656;2024-02-21T04:05:23;12.2;68.0
78438;SHT31;67736;51.978;5.656;2024-02-21T04:07:53;12.2;67.8
78438;SHT31;67736;51.978;5.656;2024-02-21T04:10:23;12.2;67.8
78438;SHT31;67736;51.978;5.656;2024-02-21T04:12:52;12.2;67.8
78438;SHT31;67736;51.978;5.656;2024-02-21T04:15:22;12.2;67.8
78438;SHT31;67736;51.978;5.656;2024-02-21T04:17:51;12.2;67.8
78438;SHT31;67736;51.978;5.656;2024-02-21T04:20:22;12.2;68.0
78438;SHT31;67736;51.978;5.656;2024-02-21T04:22:52;12.2;67.9
78438;SHT31;67736;51.978;5.656;2024-02-21T04:25:22;12.2;68.0
78438;SHT31;67736;51.978;5.656;2024-02-21T04:27:51;12.2;68.1
78438;SHT31;67736;51.978;5.656;2024-02-21T04:30:21;12.1;68.0
78438;SHT31;67736;51.978;5.656;2024-02-21T04:32:51;12.1;68.2
78438;SHT31;67736;51.978;5.656;2024-02-21T04:35:20;12.1;68.1
78438;SHT31;67736;51.978;5.656;2024-02-21T04:37:50;12.1;68.1
78438;SHT31;67736;51.978;5.656;2024-02-21T04:40:20;12.1;68.1
78438;SHT31;67736;51.978;5.656;2024-02-21T04:42:49;12.1;68.1
78438;SHT31;67736;51.978;5.656;2024-02-21T04:45:19;12.1;68.1
78438;SHT31;67736;51.978;5.656;2024-02-21T04:47:48;12.1;68.3
78438;SHT31;67736;51.978;5.656;2024-02-21T04:50:18;12.0;68.3
78438;SHT31;67736;51.978;5.656;2024-02-21T04:52:48;12.0;68.3
78438;SHT31;67736;51.978;5.656;2024-02-21T04:55:17;12.0;68.3
78438;SHT31;67736;51.978;5.656;2024-02-21T04:57:47;12.0;68.4
78438;SHT31;67736;51.978;5.656;2024-02-21T05:00:17;12.0;68.4
78438;SHT31;67736;51.978;5.656;2024-02-21T05:02:47;11.9;68.5
78438;SHT31;67736;51.978;5.656;2024-02-21T05:05:16;11.9;68.6
78438;SHT31;67736;51.978;5.656;2024-02-21T05:07:46;11.9;68.6
78438;SHT31;67736;51.978;5.656;2024-02-21T05:10:15;11.9;68.7
78438;SHT31;67736;51.978;5.656;2024-02-21T05:12:46;11.9;68.7
78438;SHT31;67736;51.978;5.656;2024-02-21T05:15:17;11.9;68.7
78438;SHT31;67736;51.978;5.656;2024-02-21T05:17:46;11.9;68.6
78438;SHT31;67736;51.978;5.656;2024-02-21T05:20:16;11.9;68.7
78438;SHT31;67736;51.978;5.656;2024-02-21T05:22:45;11.9;68.7
78438;SHT31;67736;51.978;5.656;2024-02-21T05:25:15;11.9;68.8
78438;SHT31;67736;51.978;5.656;2024-02-21T05:27:45;11.8;68.8
78438;SHT31;67736;51.978;5.656;2024-02-21T05:30:17;11.8;69.0
78438;SHT31;67736;51.978;5.656;2024-02-21T05:32:47;11.8;69.1
78438;SHT31;67736;51.978;5.656;2024-02-21T05:35:17;11.8;69.1
78438;SHT31;67736;51.978;5.656;2024-02-21T05:37:49;11.8;69.3
78438;SHT31;67736;51.978;5.656;2024-02-21T05:40:20;11.8;69.3
78438;SHT31;67736;51.978;5.656;2024-02-21T05:42:49;11.8;69.3
78438;SHT31;67736;51.978;5.656;2024-02-21T05:45:19;11.7;69.3
78438;SHT31;67736;51.978;5.656;2024-02-21T05:47:50;11.7;69.4
78438;SHT31;67736;51.978;5.656;2024-02-21T05:50:20;11.7;69.4
78438;SHT31;67736;51.978;5.656;2024-02-21T05:52:51;11.7;69.4
78438;SHT31;67736;51.978;5.656;2024-02-21T05:55:21;11.7;69.6
78438;SHT31;67736;51.978;5.656;2024-02-21T05:57:53;11.7;69.7
78438;SHT31;67736;51.978;5.656;2024-02-21T06:00:23;11.6;69.7
78438;SHT31;67736;51.978;5.656;2024-02-21T06:02:52;11.6;69.7
78438;SHT31;67736;51.978;5.656;2024-02-21T06:05:22;11.6;69.7
78438;SHT31;67736;51.978;5.656;2024-02-21T06:07:51;11.6;69.7
78438;SHT31;67736;51.978;5.656;2024-02-21T06:10:22;11.6;69.6
78438;SHT31;67736;51.978;5.656;2024-02-21T06:12:52;11.6;69.6
78438;SHT31;67736;51.978;5.656;2024-02-21T06:15:22;11.6;69.7
78438;SHT31;67736;51.978;5.656;2024-02-21T06:17:51;11.6;69.5
78438;SHT31;67736;51.978;5.656;2024-02-21T06:20:23;11.6;69.6
78438;SHT31;67736;51.978;5.656;2024-02-21T06:22:53;11.6;69.5
78438;SHT31;67736;51.978;5.656;2024-02-21T06:25:24;11.6;69.6
78438;SHT31;67736;51.978;5.656;2024-02-21T06:27:54;11.6;69.6
78438;SHT31;67736;51.978;5.656;2024-02-21T06:30:23;11.6;69.5
78438;SHT31;67736;51.978;5.656;2024-02-21T06:32:53;11.6;69.5
78438;SHT31;67736;51.978;5.656;2024-02-21T06:35:23;11.6;69.5
78438;SHT31;67736;51.978;5.656;2024-02-21T06:37:53;11.5;69.5
78438;SHT31;67736;51.978;5.656;2024-02-21T06:40:23;11.5;69.7
78438;SHT31;67736;51.978;5.656;2024-02-21T06:42:53;11.5;69.6
78438;SHT31;67736;51.978;5.656;2024-02-21T06:45:22;11.5;69.6
78438;SHT31;67736;51.978;5.656;2024-02-21T06:47:54;11.5;69.7
78438;SHT31;67736;51.978;5.656;2024-02-21T06:50:23;11.5;69.6
78438;SHT31;67736;51.978;5.656;2024-02-21T06:52:53;11.5;69.6
78438;SHT31;67736;51.978;5.656;2024-02-21T06:55:22;11.5;69.6
78438;SHT31;67736;51.978;5.656;2024-02-21T06:57:52;11.5;69.6
78438;SHT31;67736;51.978;5.656;2024-02-21T07:00:22;11.5;69.6
78438;SHT31;67736;51.978;5.656;2024-02-21T07:02:53;11.5;69.5
78438;SHT31;67736;51.978;5.656;2024-02-21T07:05:22;11.5;69.3
78438;SHT31;67736;51.978;5.656;2024-02-21T07:07:52;11.5;69.5
78438;SHT31;67736;51.978;5.656;2024-02-21T07:10:22;11.5;69.5
78438;SHT31;67736;51.978;5.656;2024-02-21T07:12:52;11.5;69.3
78438;SHT31;67736;51.978;5.656;2024-02-21T07:15:22;11.5;69.2
78438;SHT31;67736;51.978;5.656;2024-02-21T07:17:54;11.5;69.1
78438;SHT31;67736;51.978;5.656;2024-02-21T07:20:23;11.5;69.2
78438;SHT31;67736;51.978;5.656;2024-02-21T07:22:54;11.5;69.3
78438;SHT31;67736;51.978;5.656;2024-02-21T07:25:23;11.5;69.1
78438;SHT31;67736;51.978;5.656;2024-02-21T07:27:53;11.6;69.1
78438;SHT31;67736;51.978;5.656;2024-02-21T07:30:24;11.6;69.0
78438;SHT31;67736;51.978;5.656;2024-02-21T07:32:56;11.6;68.8
78438;SHT31;67736;51.978;5.656;2024-02-21T07:35:25;11.6;68.9
78438;SHT31;67736;51.978;5.656;2024-02-21T07:37:55;11.6;68.9
78438;SHT31;67736;51.978;5.656;2024-02-21T07:40:24;11.6;68.9
78438;SHT31;67736;51.978;5.656;2024-02-21T07:42:54;11.6;68.9
78438;SHT31;67736;51.978;5.656;2024-02-21T07:45:23;11.6;68.7
78438;SHT31;67736;51.978;5.656;2024-02-21T07:47:54;11.6;68.9
78438;SHT31;67736;51.978;5.656;2024-02-21T07:50:23;11.6;68.7
78438;SHT31;67736;51.978;5.656;2024-02-21T07:52:53;11.6;68.7
78438;SHT31;67736;51.978;5.656;2024-02-21T07:55:23;11.7;68.5
78438;SHT31;67736;51.978;5.656;2024-02-21T07:57:52;11.7;68.4
78438;SHT31;67736;51.978;5.656;2024-02-21T08:00:22;11.7;68.4
78438;SHT31;67736;51.978;5.656;2024-02-21T08:02:51;11.7;68.4
78438;SHT31;67736;51.978;5.656;2024-02-21T08:05:23;11.7;68.5
78438;SHT31;67736;51.978;5.656;2024-02-21T08:07:55;11.7;68.3
78438;SHT31;67736;51.978;5.656;2024-02-21T08:10:25;11.7;68.2
78438;SHT31;67736;51.978;5.656;2024-02-21T08:12:55;11.7;68.2
78438;SHT31;67736;51.978;5.656;2024-02-21T08:15:24;11.7;68.3
78438;SHT31;67736;51.978;5.656;2024-02-21T08:17:57;11.7;68.0
78438;SHT31;67736;51.978;5.656;2024-02-21T08:20:28;11.7;68.1
78438;SHT31;67736;51.978;5.656;2024-02-21T08:22:58;11.7;67.9
78438;SHT31;67736;51.978;5.656;2024-02-21T08:25:27;11.7;67.7
78438;SHT31;67736;51.978;5.656;2024-02-21T08:27:58;11.7;67.8
78438;SHT31;67736;51.978;5.656;2024-02-21T08:30:28;11.8;67.9
78438;SHT31;67736;51.978;5.656;2024-02-21T08:32:57;11.8;68.0
78438;SHT31;67736;51.978;5.656;2024-02-21T08:35:27;11.8;67.8
78438;SHT31;67736;51.978;5.656;2024-02-21T08:37:56;11.8;67.5
78438;SHT31;67736;51.978;5.656;2024-02-21T08:40:26;11.8;67.2
78438;SHT31;67736;51.978;5.656;2024-02-21T08:42:56;11.8;67.3
78438;SHT31;67736;51.978;5.656;2024-02-21T08:45:25;11.8;67.1
78438;SHT31;67736;51.978;5.656;2024-02-21T08:47:55;11.8;67.3
78438;SHT31;67736;51.978;5.656;2024-02-21T08:50:25;11.9;67.0
78438;SHT31;67736;51.978;5.656;2024-02-21T08:52:55;11.9;67.1
78438;SHT31;67736;51.978;5.656;2024-02-21T08:55:25;11.9;67.2
78438;SHT31;67736;51.978;5.656;2024-02-21T08:57:54;11.9;66.9
78438;SHT31;67736;51.978;5.656;2024-02-21T09:00:26;11.9;66.9
78438;SHT31;67736;51.978;5.656;2024-02-21T09:02:56;11.9;66.9
78438;SHT31;67736;51.978;5.656;2024-02-21T09:05:25;11.9;66.7
78438;SHT31;67736;51.978;5.656;2024-02-21T09:07:55;11.9;66.8
78438;SHT31;67736;51.978;5.656;2024-02-21T09:10:24;11.9;67.1
78438;SHT31;67736;51.978;5.656;2024-02-21T09:12:54;11.9;67.0
78438;SHT31;67736;51.978;5.656;2024-02-21T09:15:23;11.9;67.1
78438;SHT31;67736;51.978;5.656;2024-02-21T09:17:54;11.9;66.7
78438;SHT31;67736;51.978;5.656;2024-02-21T09:20:24;11.9;66.8
78438;SHT31;67736;51.978;5.656;2024-02-21T09:22:55;11.9;66.5
78438;SHT31;67736;51.978;5.656;2024-02-21T09:25:24;12.0;66.6
78438;SHT31;67736;51.978;5.656;2024-02-21T09:27:55;12.0;67.1
78438;SHT31;67736;51.978;5.656;2024-02-21T09:30:25;12.0;66.6
78438;SHT31;67736;51.978;5.656;2024-02-21T09:32:55;12.1;66.2
78438;SHT31;67736;51.978;5.656;2024-02-21T09:35:26;12.1;66.1
78438;SHT31;67736;51.978;5.656;2024-02-21T09:37:55;12.1;66.1
78438;SHT31;67736;51.978;5.656;2024-02-21T09:40:25;12.1;66.2
78438;SHT31;67736;51.978;5.656;2024-02-21T09:43:04;12.2;66.1
78438;SHT31;67736;51.978;5.656;2024-02-21T09:45:34;12.2;66.3
78438;SHT31;67736;51.978;5.656;2024-02-21T09:48:44;12.2;66.2
78438;SHT31;67736;51.978;5.656;2024-02-21T09:51:02;12.3;65.9
78438;SHT31;67736;51.978;5.656;2024-02-21T09:53:34;12.3;65.4
78438;SHT31;67736;51.978;5.656;2024-02-21T09:56:07;12.4;65.5
78438;SHT31;67736;51.978;5.656;2024-02-21T09:58:38;12.4;65.4
78438;SHT31;67736;51.978;5.656;2024-02-21T10:01:08;12.4;64.9
78438;SHT31;67736;51.978;5.656;2024-02-21T10:03:38;12.4;65.0
78438;SHT31;67736;51.978;5.656;2024-02-21T10:06:07;12.4;65.1
78438;SHT31;67736;51.978;5.656;2024-02-21T10:08:37;12.4;65.2
78438;SHT31;67736;51.978;5.656;2024-02-21T10:11:06;12.4;65.2
78438;SHT31;67736;51.978;5.656;2024-02-21T10:13:37;12.4;65.0
78438;SHT31;67736;51.978;5.656;2024-02-21T10:16:09;12.5;65.1
78438;SHT31;67736;51.978;5.656;2024-02-21T10:18:39;12.5;64.9
78438;SHT31;67736;51.978;5.656;2024-02-21T10:21:09;12.5;65.2
78438;SHT31;67736;51.978;5.656;2024-02-21T10:23:46;12.5;65.2
78438;SHT31;67736;51.978;5.656;2024-02-21T10:26:18;12.5;65.4
78438;SHT31;67736;51.978;5.656;2024-02-21T10:28:48;12.5;65.7
78438;SHT31;67736;51.978;5.656;2024-02-21T10:31:26;12.5;65.6
78438;SHT31;67736;51.978;5.656;2024-02-21T10:33:57;12.5;65.9
78438;SHT31;67736;51.978;5.656;2024-02-21T10:36:27;12.5;66.1
78438;SHT31;67736;51.978;5.656;2024-02-21T10:38:57;12.5;66.2
78438;SHT31;67736;51.978;5.656;2024-02-21T10:41:26;12.5;66.5
78438;SHT31;67736;51.978;5.656;2024-02-21T10:43:57;12.5;66.6
78438;SHT31;67736;51.978;5.656;2024-02-21T10:46:30;12.5;66.6
78438;SHT31;67736;51.978;5.656;2024-02-21T10:49:19;12.5;66.6
78438;SHT31;67736;51.978;5.656;2024-02-21T10:51:43;12.5;66.9
78438;SHT31;67736;51.978;5.656;2024-02-21T10:54:29;12.5;67.1
78438;SHT31;67736;51.978;5.656;2024-02-21T10:57:00;12.5;67.1
78438;SHT31;67736;51.978;5.656;2024-02-21T10:59:32;12.5;67.3
78438;SHT31;67736;51.978;5.656;2024-02-21T11:02:02;12.5;67.4
78438;SHT31;67736;51.978;5.656;2024-02-21T11:04:34;12.5;67.3
78438;SHT31;67736;51.978;5.656;2024-02-21T11:07:05;12.5;67.1
78438;SHT31;67736;51.978;5.656;2024-02-21T11:09:35;12.5;67.2
78438;SHT31;67736;51.978;5.656;2024-02-21T11:12:06;12.5;67.3
78438;SHT31;67736;51.978;5.656;2024-02-21T11:14:38;12.5;67.2
78438;SHT31;67736;51.978;5.656;2024-02-21T11:17:16;12.5;67.3
78438;SHT31;67736;51.978;5.656;2024-02-21T11:19:47;12.5;67.1
78438;SHT31;67736;51.978;5.656;2024-02-21T11:22:17;12.5;67.1
78438;SHT31;67736;51.978;5.656;2024-02-21T11:24:50;12.5;66.3
78438;SHT31;67736;51.978;5.656;2024-02-21T11:27:22;12.5;66.1
78438;SHT31;67736;51.978;5.656;2024-02-21T11:29:57;12.5;65.9
78438;SHT31;67736;51.978;5.656;2024-02-21T11:32:27;12.6;65.5
78438;SHT31;67736;51.978;5.656;2024-02-21T11:34:59;12.6;65.3
78438;SHT31;67736;51.978;5.656;2024-02-21T11:37:32;12.6;65.3
78438;SHT31;67736;51.978;5.656;2024-02-21T11:40:06;12.6;65.2
78438;SHT31;67736;51.978;5.656;2024-02-21T11:42:37;12.6;65.1
78438;SHT31;67736;51.978;5.656;2024-02-21T11:45:07;12.6;65.1
78438;SHT31;67736;51.978;5.656;2024-02-21T11:47:38;12.6;65.1
78438;SHT31;67736;51.978;5.656;2024-02-21T11:50:11;12.6;64.9
78438;SHT31;67736;51.978;5.656;2024-02-21T11:52:41;12.6;65.0
78438;SHT31;67736;51.978;5.656;2024-02-21T11:55:10;12.6;64.9
78438;SHT31;67736;51.978;5.656;2024-02-21T11:57:41;12.6;65.0
78438;SHT31;67736;51.978;5.656;2024-02-21T12:00:17;12.6;64.8
78438;SHT31;67736;51.978;5.656;2024-02-21T12:02:47;12.6;64.6
78438;SHT31;67736;51.978;5.656;2024-02-21T12:05:19;12.6;64.7
78438;SHT31;67736;51.978;5.656;2024-02-21T12:07:50;12.6;64.4
78438;SHT31;67736;51.978;5.656;2024-02-21T12:10:21;12.6;64.4
78438;SHT31;67736;51.978;5.656;2024-02-21T12:12:50;12.6;64.2
78438;SHT31;67736;51.978;5.656;2024-02-21T12:15:25;12.6;64.3
78438;SHT31;67736;51.978;5.656;2024-02-21T12:17:55;12.7;64.3
78438;SHT31;67736;51.978;5.656;2024-02-21T12:20:25;12.7;64.4
78438;SHT31;67736;51.978;5.656;2024-02-21T12:22:56;12.7;64.1
78438;SHT31;67736;51.978;5.656;2024-02-21T12:25:29;12.8;64.0
78438;SHT31;67736;51.978;5.656;2024-02-21T12:28:00;12.8;63.9
78438;SHT31;67736;51.978;5.656;2024-02-21T12:30:31;12.8;63.8
78438;SHT31;67736;51.978;5.656;2024-02-21T12:33:04;12.9;63.7
78438;SHT31;67736;51.978;5.656;2024-02-21T12:35:34;12.9;63.7
78438;SHT31;67736;51.978;5.656;2024-02-21T12:38:03;12.9;63.5
78438;SHT31;67736;51.978;5.656;2024-02-21T12:40:33;13.0;63.3
78438;SHT31;67736;51.978;5.656;2024-02-21T12:43:03;13.0;63.0
78438;SHT31;67736;51.978;5.656;2024-02-21T12:45:32;13.1;62.8
78438;SHT31;67736;51.978;5.656;2024-02-21T12:48:02;13.1;62.9
78438;SHT31;67736;51.978;5.656;2024-02-21T12:50:32;13.1;62.8
78438;SHT31;67736;51.978;5.656;2024-02-21T12:53:02;13.1;62.5
78438;SHT31;67736;51.978;5.656;2024-02-21T12:55:32;13.1;62.3
78438;SHT31;67736;51.978;5.656;2024-02-21T12:58:03;13.1;62.0
78438;SHT31;67736;51.978;5.656;2024-02-21T13:00:36;13.1;62.0
78438;SHT31;67736;51.978;5.656;2024-02-21T13:03:06;13.1;62.0
78438;SHT31;67736;51.978;5.656;2024-02-21T13:05:37;13.2;62.0
78438;SHT31;67736;51.978;5.656;2024-02-21T13:08:08;13.2;61.8
78438;SHT31;67736;51.978;5.656;2024-02-21T13:10:39;13.2;61.7
78438;SHT31;67736;51.978;5.656;2024-02-21T13:13:10;13.2;61.6
78438;SHT31;67736;51.978;5.656;2024-02-21T13:15:40;13.2;61.5
78438;SHT31;67736;51.978;5.656;2024-02-21T13:18:10;13.2;61.8
78438;SHT31;67736;51.978;5.656;2024-02-21T13:20:40;13.2;62.2
78438;SHT31;67736;51.978;5.656;2024-02-21T13:23:09;13.2;62.2
78438;SHT31;67736;51.978;5.656;2024-02-21T13:25:40;13.2;62.2
78438;SHT31;67736;51.978;5.656;2024-02-21T13:28:11;13.2;62.4
78438;SHT31;67736;51.978;5.656;2024-02-21T13:30:43;13.2;62.1
78438;SHT31;67736;51.978;5.656;2024-02-21T13:33:15;13.2;61.8
78438;SHT31;67736;51.978;5.656;2024-02-21T13:35:45;13.2;61.7
78438;SHT31;67736;51.978;5.656;2024-02-21T13:38:14;13.3;61.4
78438;SHT31;67736;51.978;5.656;2024-02-21T13:40:45;13.3;61.5
78438;SHT31;67736;51.978;5.656;2024-02-21T13:43:15;13.3;61.2
78438;SHT31;67736;51.978;5.656;2024-02-21T13:45:57;13.3;61.2
78438;SHT31;67736;51.978;5.656;2024-02-21T13:48:28;13.3;61.0
78438;SHT31;67736;51.978;5.656;2024-02-21T13:50:58;13.3;61.2
78438;SHT31;67736;51.978;5.656;2024-02-21T13:53:29;13.3;61.2
78438;SHT31;67736;51.978;5.656;2024-02-21T13:55:59;13.3;61.3
78438;SHT31;67736;51.978;5.656;2024-02-21T13:58:28;13.3;61.3
78438;SHT31;67736;51.978;5.656;2024-02-21T14:00:58;13.3;61.2
78438;SHT31;67736;51.978;5.656;2024-02-21T14:03:29;13.4;61.2
78438;SHT31;67736;51.978;5.656;2024-02-21T14:05:59;13.4;61.4
78438;SHT31;67736;51.978;5.656;2024-02-21T14:08:28;13.4;61.3
78438;SHT31;67736;51.978;5.656;2024-02-21T14:10:58;13.4;61.5
78438;SHT31;67736;51.978;5.656;2024-02-21T14:13:28;13.4;61.2
78438;SHT31;67736;51.978;5.656;2024-02-21T14:15:59;13.4;61.0
78438;SHT31;67736;51.978;5.656;2024-02-21T14:18:31;13.4;61.0
78438;SHT31;67736;51.978;5.656;2024-02-21T14:21:00;13.4;61.0
78438;SHT31;67736;51.978;5.656;2024-02-21T14:23:30;13.5;60.9
78438;SHT31;67736;51.978;5.656;2024-02-21T14:26:01;13.5;60.9
78438;SHT31;67736;51.978;5.656;2024-02-21T14:28:30;13.5;60.4
78438;SHT31;67736;51.978;5.656;2024-02-21T14:31:01;13.5;60.1
78438;SHT31;67736;51.978;5.656;2024-02-21T14:33:35;13.5;59.3
78438;SHT31;67736;51.978;5.656;2024-02-21T14:36:05;13.5;59.4
78438;SHT31;67736;51.978;5.656;2024-02-21T14:38:35;13.5;59.2
78438;SHT31;67736;51.978;5.656;2024-02-21T14:41:04;13.5;59.0
78438;SHT31;67736;51.978;5.656;2024-02-21T14:43:34;13.5;59.2
78438;SHT31;67736;51.978;5.656;2024-02-21T14:46:03;13.5;59.2
78438;SHT31;67736;51.978;5.656;2024-02-21T14:48:33;13.5;59.4
78438;SHT31;67736;51.978;5.656;2024-02-21T14:51:04;13.5;59.4
78438;SHT31;67736;51.978;5.656;2024-02-21T14:53:33;13.5;59.7
78438;SHT31;67736;51.978;5.656;2024-02-21T14:56:03;13.5;59.9
78438;SHT31;67736;51.978;5.656;2024-02-21T14:58:34;13.5;60.0
78438;SHT31;67736;51.978;5.656;2024-02-21T15:01:04;13.5;60.3
78438;SHT31;67736;51.978;5.656;2024-02-21T15:03:33;13.5;60.6
78438;SHT31;67736;51.978;5.656;2024-02-21T15:06:03;13.5;60.9
78438;SHT31;67736;51.978;5.656;2024-02-21T15:08:33;13.4;61.3
78438;SHT31;67736;51.978;5.656;2024-02-21T15:11:03;13.4;61.4
78438;SHT31;67736;51.978;5.656;2024-02-21T15:13:35;13.4;61.7
78438;SHT31;67736;51.978;5.656;2024-02-21T15:16:05;13.4;61.9
78438;SHT31;67736;51.978;5.656;2024-02-21T15:18:37;13.3;62.2
78438;SHT31;67736;51.978;5.656;2024-02-21T15:21:08;13.3;62.3
78438;SHT31;67736;51.978;5.656;2024-02-21T15:23:41;13.3;62.4
78438;SHT31;67736;51.978;5.656;2024-02-21T15:26:11;13.2;62.7
78438;SHT31;67736;51.978;5.656;2024-02-21T15:28:42;13.2;63.1
78438;SHT31;67736;51.978;5.656;2024-02-21T15:31:21;13.1;63.8
78438;SHT31;67736;51.978;5.656;2024-02-21T15:33:52;13.0;63.9
78438;SHT31;67736;51.978;5.656;2024-02-21T15:36:24;13.0;64.5
78438;SHT31;67736;51.978;5.656;2024-02-21T15:38:55;12.9;65.3
78438;SHT31;67736;51.978;5.656;2024-02-21T15:41:26;12.9;65.3
78438;SHT31;67736;51.978;5.656;2024-02-21T15:43:56;12.8;65.7
78438;SHT31;67736;51.978;5.656;2024-02-21T15:46:26;12.8;65.9
78438;SHT31;67736;51.978;5.656;2024-02-21T15:48:58;12.8;66.4
78438;SHT31;67736;51.978;5.656;2024-02-21T15:51:27;12.7;66.4
78438;SHT31;67736;51.978;5.656;2024-02-21T15:53:58;12.7;66.3
78438;SHT31;67736;51.978;5.656;2024-02-21T15:56:30;12.7;66.5
78438;SHT31;67736;51.978;5.656;2024-02-21T15:58:59;12.6;66.9
78438;SHT31;67736;51.978;5.656;2024-02-21T16:01:29;12.6;66.7
78438;SHT31;67736;51.978;5.656;2024-02-21T16:04:00;12.5;67.1
78438;SHT31;67736;51.978;5.656;2024-02-21T16:06:30;12.5;67.6
78438;SHT31;67736;51.978;5.656;2024-02-21T16:09:00;12.4;67.7
78438;SHT31;67736;51.978;5.656;2024-02-21T16:11:32;12.4;67.6
78438;SHT31;67736;51.978;5.656;2024-02-21T16:14:02;12.3;67.9
78438;SHT31;67736;51.978;5.656;2024-02-21T16:16:33;12.3;68.4
78438;SHT31;67736;51.978;5.656;2024-02-21T16:19:02;12.2;68.8
78438;SHT31;67736;51.978;5.656;2024-02-21T16:21:32;12.2;69.1
78438;SHT31;67736;51.978;5.656;2024-02-21T16:24:02;12.1;69.2